Time;durP1;ratioP1;P1;durP2;ratioP2;P2;SDS_P1;SDS_P2;PMS_P1;PMS_P2;Temp;Humidity;BMP_temperature;BMP_pressure;BME280_temperature;BME280_humidity;BME280_pressure;Samples;Min_cycle;Max_cycle;Signal;HPM_P1;HPM_P2
2022/02/28 00:00:17;;;;;;;16.35;12.95;;;4.40;99.90;;;;;;5115703;27;20245;-69
2022/02/28 00:02:45;;;;;;;20.02;12.35;;;4.40;99.90;;;;;;5115989;27;20233;-69
2022/02/28 00:05:12;;;;;;;19.00;12.82;;;4.40;99.90;;;;;;5115703;27;20226;-69
2022/02/28 00:07:39;;;;;;;18.00;13.43;;;4.30;99.90;;;;;;5116119;27;20223;-69
2022/02/28 00:10:08;;;;;;;16.45;11.30;;;4.30;99.90;;;;;;5115434;27;20274;-68
2022/02/28 00:12:36;;;;;;;18.13;11.85;;;4.20;99.90;;;;;;5115873;27;20227;-69
2022/02/28 00:15:06;;;;;;;17.50;12.63;;;4.20;99.90;;;;;;5115538;27;20233;-68
2022/02/28 00:17:33;;;;;;;17.70;12.82;;;4.20;99.90;;;;;;5114995;27;20223;-68
2022/02/28 00:20:02;;;;;;;22.33;13.43;;;4.20;99.90;;;;;;5115320;27;20285;-68
2022/02/28 00:22:29;;;;;;;17.35;12.95;;;4.30;99.90;;;;;;5115779;27;20226;-69
2022/02/28 00:24:56;;;;;;;17.17;12.25;;;4.20;99.90;;;;;;5115620;27;20230;-69
2022/02/28 00:27:22;;;;;;;16.85;12.85;;;4.20;99.90;;;;;;5115370;27;20981;-69
2022/02/28 00:29:49;;;;;;;19.95;12.68;;;4.20;99.90;;;;;;5115692;27;20230;-68
2022/02/28 00:32:16;;;;;;;17.40;13.27;;;4.20;99.90;;;;;;5115058;27;20230;-69
2022/02/28 00:34:43;;;;;;;13.48;11.00;;;4.20;99.90;;;;;;5115791;27;20234;-69
2022/02/28 00:37:11;;;;;;;17.52;12.88;;;4.20;99.90;;;;;;5114869;27;20219;-69
2022/02/28 00:39:38;;;;;;;18.45;13.57;;;4.20;99.90;;;;;;5115606;27;20339;-68
2022/02/28 00:42:05;;;;;;;17.08;13.48;;;4.20;99.90;;;;;;5115096;27;20684;-69
2022/02/28 00:44:32;;;;;;;18.00;13.85;;;4.20;99.90;;;;;;5115373;27;20222;-68
2022/02/28 00:46:59;;;;;;;17.55;13.40;;;4.20;99.90;;;;;;5115266;27;20750;-69
2022/02/28 00:49:26;;;;;;;18.50;13.75;;;4.20;99.90;;;;;;5114971;27;20215;-68
2022/02/28 00:51:53;;;;;;;19.02;13.20;;;4.20;99.90;;;;;;5114940;27;20227;-69
2022/02/28 00:54:21;;;;;;;19.02;14.02;;;4.20;99.90;;;;;;5114543;27;20227;-69
2022/02/28 00:56:48;;;;;;;20.00;15.10;;;4.30;99.90;;;;;;5115127;27;20223;-69
2022/02/28 00:59:14;;;;;;;18.52;14.65;;;4.30;99.90;;;;;;5114588;27;20239;-69
2022/02/28 01:01:41;;;;;;;18.63;14.52;;;4.20;99.90;;;;;;5114788;27;20249;-68
2022/02/28 01:04:08;;;;;;;19.55;14.60;;;4.30;99.90;;;;;;5114666;27;20220;-69
2022/02/28 01:06:35;;;;;;;21.10;14.07;;;4.30;99.90;;;;;;5114869;27;20223;-69
2022/02/28 01:09:04;;;;;;;20.02;13.38;;;4.30;99.90;;;;;;5114263;27;20227;-69
2022/02/28 01:11:33;;;;;;;20.17;14.02;;;4.30;99.90;;;;;;5114879;27;20223;-69
2022/02/28 01:14:00;;;;;;;16.88;13.10;;;4.30;99.90;;;;;;5114925;27;20269;-69
2022/02/28 01:16:27;;;;;;;19.55;14.25;;;4.40;99.90;;;;;;5114446;27;20357;-69
2022/02/28 01:18:56;;;;;;;19.00;13.57;;;4.40;99.90;;;;;;5114809;27;20278;-69
2022/02/28 01:21:23;;;;;;;22.45;16.38;;;4.40;99.90;;;;;;5113814;27;20288;-69
2022/02/28 01:23:50;;;;;;;17.30;14.80;;;4.40;99.90;;;;;;5114443;27;20369;-69
2022/02/28 01:26:18;;;;;;;16.92;13.35;;;4.40;99.90;;;;;;5114236;27;20219;-69
2022/02/28 01:28:46;;;;;;;20.58;15.75;;;4.50;99.90;;;;;;5113567;27;20606;-69
2022/02/28 01:31:13;;;;;;;17.63;13.48;;;4.40;99.90;;;;;;5113751;27;20234;-69
2022/02/28 01:33:40;;;;;;;19.30;13.88;;;4.40;99.90;;;;;;5114373;27;20219;-69
2022/02/28 01:36:07;;;;;;;21.98;15.25;;;4.40;99.90;;;;;;5113704;27;20237;-69
2022/02/28 01:38:34;;;;;;;20.30;14.45;;;4.40;99.90;;;;;;5114163;27;20223;-69
2022/02/28 01:41:01;;;;;;;15.45;12.93;;;4.30;99.90;;;;;;5114092;27;20223;-69
2022/02/28 01:43:28;;;;;;;17.63;14.38;;;4.40;99.90;;;;;;5113696;27;20215;-69
2022/02/28 01:45:57;;;;;;;20.13;14.88;;;4.30;99.90;;;;;;5114252;27;20219;-69
2022/02/28 01:48:23;;;;;;;20.13;13.40;;;4.30;99.90;;;;;;5113543;27;20227;-69
2022/02/28 01:50:50;;;;;;;22.08;15.25;;;4.40;99.90;;;;;;5114191;27;20227;-69
2022/02/28 01:53:17;;;;;;;24.05;15.48;;;4.40;99.90;;;;;;5113585;27;20561;-69
2022/02/28 01:55:44;;;;;;;23.58;16.15;;;4.30;99.90;;;;;;5113886;27;20591;-69
2022/02/28 01:58:11;;;;;;;21.63;14.18;;;4.40;99.90;;;;;;5113323;27;20219;-68
2022/02/28 02:00:38;;;;;;;22.23;15.85;;;4.30;99.90;;;;;;5113882;27;20249;-68
2022/02/28 02:03:07;;;;;;;18.38;15.77;;;4.40;99.90;;;;;;5113714;27;20227;-68
2022/02/28 02:05:34;;;;;;;25.48;17.75;;;4.40;99.90;;;;;;5113424;27;20996;-68
2022/02/28 02:08:05;;;;;;;23.83;16.00;;;4.40;99.90;;;;;;5113870;27;20226;-68
2022/02/28 02:10:32;;;;;;;23.55;16.35;;;4.50;99.90;;;;;;5113275;27;20598;-69
2022/02/28 02:13:00;;;;;;;22.08;16.42;;;4.50;99.90;;;;;;5113636;27;20568;-69
2022/02/28 02:15:27;;;;;;;19.42;14.45;;;4.50;99.90;;;;;;5113144;27;20223;-69
2022/02/28 02:17:56;;;;;;;20.48;14.57;;;4.50;99.90;;;;;;5113515;27;20561;-69
2022/02/28 02:20:34;;;;;;;23.90;15.60;;;4.50;99.90;;;;;;5112900;27;20699;-69
2022/02/28 02:23:04;;;;;;;20.70;13.55;;;4.50;99.90;;;;;;5113281;27;20227;-69
2022/02/28 02:25:31;;;;;;;25.90;15.70;;;4.50;99.90;;;;;;5113095;27;20295;-69
2022/02/28 02:27:59;;;;;;;19.33;13.20;;;4.50;99.90;;;;;;5113165;27;20219;-69
2022/02/28 02:30:26;;;;;;;20.25;14.68;;;4.50;99.90;;;;;;5113021;27;20231;-69
2022/02/28 02:32:52;;;;;;;24.75;16.02;;;4.60;99.90;;;;;;5113055;27;20752;-68
2022/02/28 02:35:19;;;;;;;23.48;15.75;;;4.60;99.90;;;;;;5112683;27;20688;-68
2022/02/28 02:37:48;;;;;;;20.75;13.38;;;4.60;99.90;;;;;;5113212;27;20578;-69
2022/02/28 02:40:15;;;;;;;23.92;14.43;;;4.60;99.90;;;;;;5112467;27;20241;-68
2022/02/28 02:42:42;;;;;;;23.10;15.70;;;4.70;99.90;;;;;;5113081;27;20510;-69
2022/02/28 02:45:10;;;;;;;21.33;15.63;;;4.70;99.90;;;;;;5113262;27;20233;-68
2022/02/28 02:47:37;;;;;;;21.15;15.43;;;4.70;99.90;;;;;;5113059;27;20964;-69
2022/02/28 02:50:06;;;;;;;23.55;15.70;;;4.70;99.90;;;;;;5112971;27;20238;-68
2022/02/28 02:52:33;;;;;;;21.83;14.30;;;4.70;99.90;;;;;;5112589;27;20223;-69
2022/02/28 02:55:01;;;;;;;22.38;15.75;;;4.70;99.90;;;;;;5113060;27;20226;-68
2022/02/28 02:57:28;;;;;;;23.27;15.68;;;4.70;99.90;;;;;;5112687;27;20223;-68
2022/02/28 02:59:55;;;;;;;26.05;14.98;;;4.60;99.90;;;;;;5112890;27;20235;-69
2022/02/28 03:02:22;;;;;;;22.92;15.30;;;4.70;99.90;;;;;;5112353;27;20305;-69
2022/02/28 03:04:48;;;;;;;20.33;14.23;;;4.60;99.90;;;;;;5113067;27;20231;-69
2022/02/28 03:07:16;;;;;;;25.60;16.05;;;4.60;99.90;;;;;;5112664;27;20226;-69
2022/02/28 03:09:44;;;;;;;27.70;18.13;;;4.60;99.90;;;;;;5112979;27;20231;-69
2022/02/28 03:12:13;;;;;;;21.02;14.20;;;4.60;99.90;;;;;;5112823;27;20296;-69
2022/02/28 03:14:40;;;;;;;25.58;15.43;;;4.60;99.90;;;;;;5112646;27;20896;-68
2022/02/28 03:17:07;;;;;;;25.02;16.13;;;4.70;99.90;;;;;;5112877;27;20242;-68
2022/02/28 03:19:33;;;;;;;20.15;14.45;;;4.70;99.90;;;;;;5112557;27;20231;-69
2022/02/28 03:22:00;;;;;;;21.63;14.95;;;4.60;99.90;;;;;;5112796;27;20223;-69
2022/02/28 03:24:27;;;;;;;24.63;15.88;;;4.60;99.90;;;;;;5112361;27;20222;-68
2022/02/28 03:26:54;;;;;;;25.50;15.95;;;4.60;99.90;;;;;;5112886;27;20680;-68
2022/02/28 03:29:22;;;;;;;23.15;14.52;;;4.60;99.90;;;;;;5112369;27;20688;-69
2022/02/28 03:31:49;;;;;;;24.85;16.02;;;4.50;99.90;;;;;;5112639;27;20231;-68
2022/02/28 03:34:16;;;;;;;24.55;15.35;;;4.50;99.90;;;;;;5112855;27;20310;-68
2022/02/28 03:36:43;;;;;;;23.33;16.50;;;4.50;99.90;;;;;;5112305;27;20227;-69
2022/02/28 03:39:10;;;;;;;22.20;16.95;;;4.50;99.90;;;;;;5112600;27;20242;-67
2022/02/28 03:41:36;;;;;;;24.40;16.88;;;4.50;99.90;;;;;;5112259;27;20228;-68
2022/02/28 03:44:04;;;;;;;26.27;16.90;;;4.50;99.90;;;;;;5112644;27;20564;-69
2022/02/28 03:46:32;;;;;;;21.70;14.60;;;4.40;99.90;;;;;;5112137;27;20249;-69
2022/02/28 03:48:59;;;;;;;27.63;17.20;;;4.40;99.90;;;;;;5112605;27;20219;-69
2022/02/28 03:51:26;;;;;;;21.98;14.10;;;4.40;99.90;;;;;;5112096;27;20323;-69
2022/02/28 03:53:52;;;;;;;26.25;17.00;;;4.40;99.90;;;;;;5116070;27;20223;-70
2022/02/28 03:56:19;;;;;;;24.17;17.10;;;4.50;99.90;;;;;;5116327;27;20223;-69
2022/02/28 03:58:46;;;;;;;25.60;16.55;;;4.40;99.90;;;;;;5115671;27;20907;-69
2022/02/28 04:01:13;;;;;;;24.33;15.07;;;4.50;99.90;;;;;;5115934;27;20231;-69
2022/02/28 04:03:41;;;;;;;25.00;15.13;;;4.40;99.90;;;;;;5115727;27;20231;-69
2022/02/28 04:06:08;;;;;;;24.08;16.92;;;4.40;99.90;;;;;;5115979;27;20246;-69
2022/02/28 04:08:35;;;;;;;25.75;16.88;;;4.40;99.90;;;;;;5115624;27;20215;-70
2022/02/28 04:11:02;;;;;;;23.63;15.95;;;4.40;99.90;;;;;;5115864;27;20495;-69
2022/02/28 04:13:29;;;;;;;26.65;16.70;;;4.40;99.90;;;;;;5115541;27;20225;-69
2022/02/28 04:15:56;;;;;;;22.05;15.68;;;4.40;99.90;;;;;;5115975;27;20223;-69
2022/02/28 04:18:23;;;;;;;27.45;18.10;;;4.50;99.90;;;;;;5115272;27;20664;-69
2022/02/28 04:20:51;;;;;;;25.42;16.52;;;4.50;99.90;;;;;;5115729;27;20219;-69
2022/02/28 04:23:18;;;;;;;23.52;16.08;;;4.50;99.90;;;;;;5115507;27;20219;-69
2022/02/28 04:25:45;;;;;;;27.08;16.70;;;4.50;99.90;;;;;;5114971;27;20215;-69
2022/02/28 04:28:11;;;;;;;23.00;14.57;;;4.50;99.90;;;;;;5115563;27;20284;-69
2022/02/28 04:30:39;;;;;;;22.00;15.60;;;4.50;99.90;;;;;;5115089;27;20237;-70
2022/02/28 04:33:06;;;;;;;21.58;15.05;;;4.50;99.90;;;;;;5115537;27;20219;-69
2022/02/28 04:35:33;;;;;;;24.52;16.85;;;4.50;99.90;;;;;;5114902;27;20226;-69
2022/02/28 04:38:05;;;;;;;23.67;16.23;;;4.50;99.90;;;;;;5115298;27;20219;-69
2022/02/28 04:40:32;;;;;;;22.13;14.10;;;4.50;99.90;;;;;;5114895;27;20219;-69
2022/02/28 04:42:58;;;;;;;26.23;16.23;;;4.50;99.90;;;;;;5115163;27;20223;-69
2022/02/28 04:45:25;;;;;;;23.23;16.73;;;4.50;99.90;;;;;;5114869;27;20226;-69
2022/02/28 04:47:52;;;;;;;24.80;17.60;;;4.50;99.90;;;;;;5115105;27;20223;-69
2022/02/28 04:50:19;;;;;;;24.98;17.67;;;4.50;99.90;;;;;;5114899;27;20238;-69
2022/02/28 04:52:46;;;;;;;29.70;18.38;;;4.50;99.90;;;;;;5114964;27;20219;-69
2022/02/28 04:55:15;;;;;;;22.77;16.17;;;4.40;99.90;;;;;;5114426;27;20234;-69
2022/02/28 04:57:43;;;;;;;27.83;18.67;;;4.50;99.90;;;;;;5115106;27;20231;-69
2022/02/28 05:00:12;;;;;;;31.48;19.20;;;4.50;99.90;;;;;;5114433;27;20565;-69
2022/02/28 05:02:39;;;;;;;25.77;17.48;;;4.50;99.90;;;;;;5114661;27;20223;-69
2022/02/28 05:05:06;;;;;;;22.50;16.40;;;4.50;99.90;;;;;;5114395;27;20223;-69
2022/02/28 05:07:33;;;;;;;28.40;17.02;;;4.50;99.90;;;;;;5114715;27;20688;-69
2022/02/28 05:10:00;;;;;;;21.95;15.48;;;4.50;99.90;;;;;;5114231;27;20227;-69
2022/02/28 05:12:28;;;;;;;26.73;16.90;;;4.40;99.90;;;;;;5114814;27;20665;-69
2022/02/28 05:14:55;;;;;;;25.63;16.20;;;4.40;99.90;;;;;;5114503;27;20265;-69
2022/02/28 05:17:22;;;;;;;25.30;15.63;;;4.40;99.90;;;;;;5114229;27;20234;-69
2022/02/28 05:19:49;;;;;;;26.83;14.88;;;4.40;99.90;;;;;;5114315;27;20701;-69
2022/02/28 05:22:16;;;;;;;24.73;18.20;;;4.40;99.90;;;;;;5113850;27;20837;-69
2022/02/28 05:24:43;;;;;;;27.73;16.52;;;4.40;99.90;;;;;;5114401;27;20249;-69
2022/02/28 05:27:10;;;;;;;28.05;16.90;;;4.30;99.90;;;;;;5114186;27;20234;-69
2022/02/28 05:29:39;;;;;;;24.20;16.92;;;4.30;99.90;;;;;;5114292;27;20680;-69
2022/02/28 05:32:07;;;;;;;26.13;18.17;;;4.30;99.90;;;;;;5113771;27;20670;-69
2022/02/28 05:34:34;;;;;;;26.42;17.88;;;4.30;99.90;;;;;;5114237;27;20793;-69
2022/02/28 05:37:01;;;;;;;29.52;17.95;;;4.30;99.90;;;;;;5113559;27;20222;-69
2022/02/28 05:39:28;;;;;;;25.00;16.55;;;4.30;99.90;;;;;;5113890;27;20476;-68
2022/02/28 05:41:55;;;;;;;29.23;17.77;;;4.30;99.90;;;;;;5114104;27;20245;-69
2022/02/28 05:44:21;;;;;;;25.27;17.13;;;4.30;99.90;;;;;;5113624;27;20533;-69
2022/02/28 05:46:49;;;;;;;27.65;15.98;;;4.30;99.90;;;;;;5113886;27;20231;-69
2022/02/28 05:49:16;;;;;;;22.38;16.00;;;4.30;99.90;;;;;;5113704;27;20219;-69
2022/02/28 05:51:43;;;;;;;27.70;18.10;;;4.30;99.90;;;;;;5113772;27;20227;-69
2022/02/28 05:54:10;;;;;;;21.90;15.75;;;4.40;99.90;;;;;;5113462;27;20215;-68
2022/02/28 05:56:37;;;;;;;25.75;16.08;;;4.40;99.90;;;;;;5113898;27;20229;-69
2022/02/28 05:59:04;;;;;;;28.15;18.40;;;4.30;99.90;;;;;;5113101;27;20234;-69
2022/02/28 06:01:32;;;;;;;25.35;16.13;;;4.40;99.90;;;;;;5113598;27;20223;-69
2022/02/28 06:04:00;;;;;;;27.48;16.63;;;4.30;99.90;;;;;;5113608;27;20234;-69
2022/02/28 06:06:26;;;;;;;24.80;17.55;;;4.20;99.90;;;;;;5113235;27;20653;-69
2022/02/28 06:08:53;;;;;;;30.77;18.05;;;4.20;99.90;;;;;;5113628;27;20227;-69
2022/02/28 06:11:20;;;;;;;29.63;18.67;;;4.20;99.90;;;;;;5112983;27;20227;-69
2022/02/28 06:13:47;;;;;;;27.40;17.70;;;4.30;99.90;;;;;;5113579;27;20230;-68
2022/02/28 06:16:14;;;;;;;26.20;18.08;;;4.30;99.90;;;;;;5112436;27;20223;-68
2022/02/28 06:18:41;;;;;;;26.15;19.08;;;4.30;99.90;;;;;;5113416;27;20234;-68
2022/02/28 06:21:09;;;;;;;26.70;17.65;;;4.30;99.90;;;;;;5112746;27;20570;-68
2022/02/28 06:23:36;;;;;;;29.15;20.00;;;4.30;99.90;;;;;;5113296;27;20219;-68
2022/02/28 06:26:02;;;;;;;27.25;17.33;;;4.30;99.90;;;;;;5113324;27;20558;-68
2022/02/28 06:28:32;;;;;;;26.60;18.00;;;4.30;99.90;;;;;;5112921;27;20565;-68
2022/02/28 06:31:03;;;;;;;24.58;17.77;;;4.30;99.90;;;;;;5113284;27;20306;-69
2022/02/28 06:33:30;;;;;;;29.85;18.45;;;4.20;99.90;;;;;;5113120;27;21285;-68
2022/02/28 06:35:57;;;;;;;29.83;18.58;;;4.30;99.90;;;;;;5112979;27;20219;-68
2022/02/28 06:38:26;;;;;;;25.70;17.67;;;4.30;99.90;;;;;;5112600;27;20219;-69
2022/02/28 06:40:54;;;;;;;23.17;16.88;;;4.40;99.90;;;;;;5112875;27;20231;-69
2022/02/28 06:43:22;;;;;;;23.25;16.80;;;4.40;99.90;;;;;;5112610;27;20223;-69
2022/02/28 06:45:49;;;;;;;30.25;19.13;;;4.40;99.90;;;;;;5113022;27;20227;-70
2022/02/28 06:48:17;;;;;;;25.98;16.70;;;4.40;99.90;;;;;;5112487;27;20253;-69
2022/02/28 06:50:45;;;;;;;30.05;18.88;;;4.40;99.90;;;;;;5112943;27;20231;-69
2022/02/28 06:53:12;;;;;;;25.52;16.80;;;4.40;99.90;;;;;;5112586;27;20219;-69
2022/02/28 06:55:40;;;;;;;26.73;19.15;;;4.40;99.90;;;;;;5112994;27;20301;-69
2022/02/28 06:58:07;;;;;;;27.38;17.88;;;4.50;99.90;;;;;;5112514;27;20227;-69
2022/02/28 07:00:34;;;;;;;26.90;18.00;;;4.50;99.90;;;;;;5112489;27;20227;-69
2022/02/28 07:03:01;;;;;;;27.02;19.15;;;4.50;99.90;;;;;;5112940;27;20276;-69
2022/02/28 07:05:28;;;;;;;25.75;18.60;;;4.50;99.90;;;;;;5112495;27;20227;-69
2022/02/28 07:07:55;;;;;;;27.77;18.77;;;4.60;99.90;;;;;;5112713;27;20223;-70
2022/02/28 07:10:26;;;;;;;28.58;17.60;;;4.60;99.90;;;;;;5112283;27;20227;-69
2022/02/28 07:12:54;;;;;;;27.17;17.45;;;4.60;99.90;;;;;;5112861;27;20237;-69
2022/02/28 07:15:23;;;;;;;30.90;18.40;;;4.60;99.90;;;;;;5112546;27;20252;-69
2022/02/28 07:17:50;;;;;;;28.20;17.30;;;4.60;99.90;;;;;;5112564;27;21058;-69
2022/02/28 07:20:17;;;;;;;27.48;19.23;;;4.60;99.90;;;;;;5112135;27;20227;-69
2022/02/28 07:22:44;;;;;;;34.50;20.42;;;4.60;99.90;;;;;;5112746;27;20222;-69
2022/02/28 07:25:11;;;;;;;29.15;19.75;;;4.60;99.90;;;;;;5112025;27;20226;-69
2022/02/28 07:27:37;;;;;;;26.90;17.20;;;4.50;99.90;;;;;;5114839;27;20225;-69
2022/02/28 07:30:07;;;;;;;25.33;17.63;;;4.60;99.90;;;;;;5116597;27;20238;-69
2022/02/28 07:32:34;;;;;;;27.67;18.27;;;4.60;99.90;;;;;;5116103;27;20460;-70
2022/02/28 07:35:00;;;;;;;27.75;19.52;;;4.60;99.90;;;;;;5116578;27;20538;-69
2022/02/28 07:37:27;;;;;;;32.05;19.05;;;4.60;99.90;;;;;;5116233;27;20594;-70
2022/02/28 07:39:54;;;;;;;30.00;20.05;;;4.70;99.90;;;;;;5116300;27;20242;-69
2022/02/28 07:42:21;;;;;;;26.85;19.80;;;4.70;99.90;;;;;;5116050;27;20226;-69
2022/02/28 07:44:48;;;;;;;27.25;18.30;;;4.70;99.90;;;;;;5116159;27;20716;-69
2022/02/28 07:47:16;;;;;;;30.67;17.52;;;4.70;99.90;;;;;;5115798;27;20219;-68
2022/02/28 07:49:43;;;;;;;27.17;16.85;;;4.80;99.90;;;;;;5116798;27;20245;-69
2022/02/28 07:52:10;;;;;;;26.58;17.52;;;4.80;99.90;;;;;;5116074;27;20242;-68
2022/02/28 07:54:37;;;;;;;25.75;17.23;;;4.80;99.90;;;;;;5115880;27;20222;-68
2022/02/28 07:57:04;;;;;;;22.70;15.93;;;4.80;99.90;;;;;;5116720;27;20223;-69
2022/02/28 07:59:31;;;;;;;27.17;19.25;;;4.80;99.90;;;;;;5115720;27;20254;-69
2022/02/28 08:01:58;;;;;;;25.48;18.40;;;4.80;99.90;;;;;;5115751;27;20227;-69
2022/02/28 08:04:26;;;;;;;32.20;17.20;;;4.80;99.90;;;;;;5115691;27;20592;-68
2022/02/28 08:06:53;;;;;;;28.80;18.00;;;4.80;99.90;;;;;;5115986;27;20246;-69
2022/02/28 08:09:21;;;;;;;28.27;18.42;;;4.80;99.90;;;;;;5115466;27;20293;-69
2022/02/28 08:11:48;;;;;;;25.73;17.45;;;4.80;99.90;;;;;;5115769;27;20231;-70
2022/02/28 08:14:15;;;;;;;26.77;17.50;;;4.80;99.90;;;;;;5115479;27;20227;-69
2022/02/28 08:16:43;;;;;;;29.45;19.50;;;4.80;99.90;;;;;;5115713;27;20226;-69
2022/02/28 08:19:11;;;;;;;25.33;18.63;;;4.80;99.90;;;;;;5115457;27;20223;-69
2022/02/28 08:21:39;;;;;;;33.08;20.23;;;4.80;99.90;;;;;;5114825;27;20230;-69
2022/02/28 08:24:07;;;;;;;29.02;18.38;;;4.80;99.90;;;;;;5115742;27;20230;-69
2022/02/28 08:26:34;;;;;;;29.17;18.73;;;4.90;99.90;;;;;;5114879;27;20224;-69
2022/02/28 08:29:01;;;;;;;24.42;16.48;;;4.90;99.90;;;;;;5115237;27;20223;-69
2022/02/28 08:31:27;;;;;;;28.45;19.42;;;4.80;99.90;;;;;;5114984;27;20231;-69
2022/02/28 08:33:54;;;;;;;23.42;18.33;;;4.80;99.90;;;;;;5115224;27;20237;-69
2022/02/28 08:36:21;;;;;;;25.40;16.80;;;4.80;99.90;;;;;;5114805;27;20223;-68
2022/02/28 08:38:50;;;;;;;28.73;21.02;;;4.80;99.90;;;;;;5114692;27;20225;-69
2022/02/28 08:41:17;;;;;;;29.40;17.70;;;4.80;99.90;;;;;;5114735;27;20227;-70
2022/02/28 08:43:44;;;;;;;28.85;18.00;;;4.90;99.90;;;;;;5115335;27;20234;-69
2022/02/28 08:46:11;;;;;;;28.73;19.80;;;4.90;99.90;;;;;;5115256;27;20229;-69
2022/02/28 08:48:38;;;;;;;29.60;19.75;;;4.90;99.90;;;;;;5114946;27;20225;-69
2022/02/28 08:51:05;;;;;;;30.35;19.52;;;4.90;99.90;;;;;;5115086;27;20231;-69
2022/02/28 08:53:31;;;;;;;28.48;18.73;;;4.90;99.90;;;;;;5114659;27;20242;-70
2022/02/28 08:56:00;;;;;;;30.20;18.77;;;4.90;99.90;;;;;;5114787;27;20489;-69
2022/02/28 08:58:27;;;;;;;25.90;20.13;;;5.00;99.90;;;;;;5114605;27;20303;-69
2022/02/28 09:00:54;;;;;;;36.58;20.42;;;5.00;99.90;;;;;;5114558;27;20235;-69
2022/02/28 09:03:20;;;;;;;27.75;20.30;;;5.00;99.90;;;;;;5114320;27;20242;-69
2022/02/28 09:05:47;;;;;;;29.23;19.92;;;5.00;99.90;;;;;;5114566;27;20234;-70
2022/02/28 09:08:14;;;;;;;40.42;24.33;;;5.00;99.90;;;;;;5114711;27;20318;-69
2022/02/28 09:10:41;;;;;;;38.33;20.67;;;5.00;99.90;;;;;;5114041;27;20238;-69
2022/02/28 09:13:09;;;;;;;28.23;20.70;;;5.00;99.90;;;;;;5114678;27;20680;-69
2022/02/28 09:15:36;;;;;;;29.50;20.38;;;5.10;99.90;;;;;;5113962;27;20230;-69
2022/02/28 09:18:05;;;;;;;31.17;20.50;;;5.20;99.90;;;;;;5114327;27;20219;-69
2022/02/28 09:20:32;;;;;;;40.45;24.85;;;5.20;99.90;;;;;;5113800;27;20254;-69
2022/02/28 09:22:59;;;;;;;35.95;22.88;;;5.20;99.90;;;;;;5114151;27;20230;-69
2022/02/28 09:25:27;;;;;;;30.00;20.92;;;5.20;99.90;;;;;;5113826;27;20417;-70
2022/02/28 09:27:54;;;;;;;39.00;22.23;;;5.20;99.90;;;;;;5114289;27;20227;-69
2022/02/28 09:30:22;;;;;;;33.45;23.30;;;5.20;99.90;;;;;;5113571;27;20223;-69
2022/02/28 09:32:51;;;;;;;36.30;23.80;;;5.20;99.90;;;;;;5114268;27;20238;-69
2022/02/28 09:35:18;;;;;;;34.72;23.60;;;5.20;99.90;;;;;;5114122;27;20508;-69
2022/02/28 09:37:44;;;;;;;36.20;23.92;;;5.30;99.90;;;;;;5113387;27;20222;-69
2022/02/28 09:40:12;;;;;;;30.08;22.17;;;5.30;99.90;;;;;;5113764;27;20223;-70
2022/02/28 09:42:40;;;;;;;36.33;26.25;;;5.40;99.90;;;;;;5113585;27;20223;-69
2022/02/28 09:45:08;;;;;;;35.03;22.60;;;5.40;99.90;;;;;;5113898;27;20223;-70
2022/02/28 09:47:36;;;;;;;31.80;22.52;;;5.50;99.90;;;;;;5113264;27;20226;-70
2022/02/28 09:50:04;;;;;;;38.13;24.73;;;5.60;99.90;;;;;;5112875;27;20233;-69
2022/02/28 09:52:31;;;;;;;38.15;24.55;;;5.60;99.90;;;;;;5112974;27;20219;-69
2022/02/28 09:54:58;;;;;;;31.48;21.20;;;5.60;99.80;;;;;;5113692;27;20226;-70
2022/02/28 09:57:26;;;;;;;30.05;22.05;;;5.60;99.30;;;;;;5113185;27;20229;-70
2022/02/28 09:59:53;;;;;;;35.40;20.80;;;5.70;99.40;;;;;;5113493;27;20234;-69
2022/02/28 10:02:19;;;;;;;29.30;21.38;;;5.60;98.90;;;;;;5113148;27;20227;-69
2022/02/28 10:04:48;;;;;;;26.73;19.65;;;5.70;98.80;;;;;;5113132;27;20219;-69
2022/02/28 10:07:19;;;;;;;27.23;19.75;;;5.80;98.60;;;;;;5113462;27;20229;-69
2022/02/28 10:09:46;;;;;;;27.30;18.27;;;5.80;98.50;;;;;;5113211;27;20264;-69
2022/02/28 10:12:13;;;;;;;39.90;22.17;;;5.90;98.60;;;;;;5113655;27;20516;-69
2022/02/28 10:14:44;;;;;;;37.72;22.25;;;5.90;98.20;;;;;;5112921;27;20321;-69
2022/02/28 10:17:11;;;;;;;28.27;19.60;;;5.90;98.30;;;;;;5113310;27;20215;-69
2022/02/28 10:19:38;;;;;;;33.85;23.40;;;6.00;98.50;;;;;;5112873;27;20223;-69
2022/02/28 10:22:07;;;;;;;45.33;23.10;;;6.00;98.30;;;;;;5113191;27;20716;-70
2022/02/28 10:24:36;;;;;;;33.28;22.33;;;6.00;98.30;;;;;;5112805;27;20215;-70
2022/02/28 10:27:04;;;;;;;38.33;23.63;;;5.90;98.20;;;;;;5113371;27;20223;-69
2022/02/28 10:29:34;;;;;;;37.67;22.75;;;5.90;98.20;;;;;;5112877;27;20276;-69
2022/02/28 10:32:03;;;;;;;33.95;22.20;;;6.00;98.30;;;;;;5112998;27;20279;-69
2022/02/28 10:34:31;;;;;;;31.73;22.13;;;6.00;98.20;;;;;;5112762;27;20219;-69
2022/02/28 10:37:06;;;;;;;28.40;20.27;;;6.00;98.10;;;;;;5113004;27;20219;-70
2022/02/28 10:39:35;;;;;;;30.17;20.65;;;6.10;97.80;;;;;;5112680;27;20534;-69
2022/02/28 10:42:08;;;;;;;31.95;22.27;;;6.20;97.80;;;;;;5112937;27;20223;-69
2022/02/28 10:44:35;;;;;;;37.50;23.13;;;6.20;97.50;;;;;;5112721;27;20291;-69
2022/02/28 10:47:06;;;;;;;29.77;21.05;;;6.20;97.60;;;;;;5112943;27;20233;-69
2022/02/28 10:49:35;;;;;;;30.70;20.98;;;6.30;97.70;;;;;;5111978;27;20215;-69
2022/02/28 10:52:07;;;;;;;37.58;26.48;;;6.40;97.80;;;;;;5112706;27;20664;-69
2022/02/28 10:54:39;;;;;;;35.65;23.65;;;6.40;97.50;;;;;;5112500;27;20257;-69
2022/02/28 10:57:07;;;;;;;39.85;24.92;;;6.50;97.60;;;;;;5112919;27;20296;-70
2022/02/28 10:59:40;;;;;;;34.03;23.00;;;6.60;97.60;;;;;;5112511;27;20685;-70
2022/02/28 11:02:08;;;;;;;33.72;20.80;;;6.60;97.20;;;;;;5115599;27;20261;-69
2022/02/28 11:04:37;;;;;;;32.13;22.85;;;6.60;96.50;;;;;;5116438;27;20215;-70
2022/02/28 11:07:09;;;;;;;38.58;23.65;;;6.60;96.60;;;;;;5117023;27;20223;-69
2022/02/28 11:09:40;;;;;;;36.30;23.58;;;6.50;96.60;;;;;;5116572;27;20649;-69
2022/02/28 11:12:28;;;;;;;27.77;20.10;;;6.60;96.70;;;;;;5116816;27;20227;-69
2022/02/28 11:14:57;;;;;;;30.75;22.15;;;6.70;96.80;;;;;;5116552;27;20983;-70
2022/02/28 11:17:27;;;;;;;28.20;20.15;;;6.70;96.30;;;;;;5117013;27;20223;-70
2022/02/28 11:19:55;;;;;;;32.05;20.70;;;6.80;96.40;;;;;;5116496;27;20347;-69
2022/02/28 11:22:22;;;;;;;30.20;19.98;;;6.80;96.80;;;;;;5116424;27;20233;-70
2022/02/28 11:24:53;;;;;;;28.85;20.98;;;6.90;96.50;;;;;;5116403;27;20223;-69
2022/02/28 11:27:19;;;;;;;31.63;21.42;;;6.90;96.40;;;;;;5116709;27;20306;-69
2022/02/28 11:29:51;;;;;;;28.52;21.35;;;7.00;96.40;;;;;;5115944;27;20227;-70
2022/02/28 11:32:18;;;;;;;27.42;20.00;;;7.00;96.60;;;;;;5130184;27;20224;-69
2022/02/28 11:34:50;;;;;;;28.65;21.50;;;7.10;96.50;;;;;;5135881;27;20229;-70
2022/02/28 11:37:21;;;;;;;28.05;19.25;;;7.10;96.20;;;;;;5127078;27;20246;-69
2022/02/28 11:39:48;;;;;;;24.98;18.48;;;7.10;95.40;;;;;;5109262;27;20227;-69
2022/02/28 11:42:16;;;;;;;25.85;18.33;;;7.10;95.60;;;;;;5116137;27;20288;-70
2022/02/28 11:44:54;;;;;;;22.20;15.15;;;7.10;95.70;;;;;;5115091;27;20596;-69
2022/02/28 11:47:21;;;;;;;24.95;18.15;;;7.10;95.70;;;;;;5116449;27;20219;-70
2022/02/28 11:49:49;;;;;;;25.33;17.63;;;7.10;95.60;;;;;;5115595;27;20226;-70
2022/02/28 11:52:34;;;;;;;26.80;16.65;;;7.20;95.60;;;;;;5110984;27;20211;-70
2022/02/28 11:55:02;;;;;;;22.25;15.95;;;7.20;95.10;;;;;;5095556;28;20652;-70
2022/02/28 11:57:51;;;;;;;21.10;14.57;;;7.20;94.70;;;;;;5104865;27;20219;-70
2022/02/28 12:00:21;;;;;;;20.98;14.63;;;7.30;95.00;;;;;;5113940;27;20257;-69
2022/02/28 12:02:48;;;;;;;19.90;14.52;;;7.20;94.20;;;;;;5114422;27;20227;-70
2022/02/28 12:05:40;;;;;;;21.48;15.20;;;7.20;94.10;;;;;;5114329;27;20230;-69
2022/02/28 12:08:10;;;;;;;15.30;13.70;;;7.30;94.50;;;;;;5112292;27;20211;-70
2022/02/28 12:10:38;;;;;;;15.80;13.88;;;7.40;94.40;;;;;;5102567;27;20281;-69
2022/02/28 12:13:06;;;;;;;17.02;13.93;;;7.40;94.20;;;;;;5107276;27;20231;-69
2022/02/28 12:15:33;;;;;;;23.45;16.95;;;7.50;94.10;;;;;;5110072;27;20342;-69
2022/02/28 12:18:09;;;;;;;18.35;12.57;;;7.60;93.90;;;;;;5107273;27;20219;-69
2022/02/28 12:21:05;;;;;;;17.20;11.48;;;7.60;93.50;;;;;;5104745;27;20219;-69
2022/02/28 12:23:32;;;;;;;20.13;10.68;;;7.60;92.90;;;;;;5100204;27;20306;-70
2022/02/28 12:26:06;;;;;;;16.25;11.15;;;7.60;92.20;;;;;;5108314;27;20700;-69
2022/02/28 12:28:44;;;;;;;18.63;11.30;;;7.60;91.70;;;;;;5104258;27;20245;-69
2022/02/28 12:31:12;;;;;;;14.68;10.82;;;7.70;91.80;;;;;;5101011;28;20219;-69
2022/02/28 12:34:03;;;;;;;20.95;10.85;;;7.70;91.90;;;;;;5096708;28;20223;-69
2022/02/28 12:36:32;;;;;;;17.45;12.73;;;7.60;92.10;;;;;;5097363;27;20223;-69
2022/02/28 12:39:03;;;;;;;11.98;9.20;;;7.70;92.10;;;;;;5102088;27;20226;-69